Time;durP1;ratioP1;P1;durP2;ratioP2;P2;SDS_P1;SDS_P2;PMS_P1;PMS_P2;Temp;Humidity;BMP_temperature;BMP_pressure;BME280_temperature;BME280_humidity;BME280_pressure;Samples;Min_cycle;Max_cycle;Signal;HPM_P1;HPM_P2
2023/11/08 00:00:25;;;;;;;2.10;1.13;;;7.30;74.30;;;;;;5095791;28;20224;-73
2023/11/08 00:02:52;;;;;;;2.53;0.95;;;7.20;74.30;;;;;;5095471;28;20220;-73
2023/11/08 00:05:19;;;;;;;3.00;0.98;;;7.20;73.70;;;;;;5095807;28;20281;-73
2023/11/08 00:07:49;;;;;;;3.80;1.50;;;7.10;72.90;;;;;;5095688;28;20250;-73
2023/11/08 00:10:16;;;;;;;3.60;0.90;;;7.00;73.20;;;;;;5095751;28;20194;-73
2023/11/08 00:12:44;;;;;;;2.40;0.93;;;6.90;73.60;;;;;;5095256;28;20208;-73
2023/11/08 00:15:12;;;;;;;2.70;1.30;;;6.90;74.00;;;;;;5095332;28;20214;-73
2023/11/08 00:17:39;;;;;;;2.70;0.90;;;6.80;74.20;;;;;;5095093;28;20189;-72
2023/11/08 00:20:10;;;;;;;2.65;1.15;;;6.80;74.30;;;;;;5094692;28;20304;-73
2023/11/08 00:22:38;;;;;;;3.17;1.20;;;6.80;74.70;;;;;;5094143;28;20627;-73
2023/11/08 00:25:06;;;;;;;3.65;1.08;;;6.80;74.40;;;;;;5095152;28;20194;-73
2023/11/08 00:27:33;;;;;;;3.80;1.60;;;6.70;74.80;;;;;;5095057;28;20670;-73
2023/11/08 00:30:03;;;;;;;3.25;1.40;;;6.70;75.20;;;;;;5095213;28;20272;-73
2023/11/08 00:32:30;;;;;;;2.17;1.05;;;6.70;75.40;;;;;;5094370;28;20189;-73
2023/11/08 00:34:57;;;;;;;2.28;1.02;;;6.70;75.30;;;;;;5094739;28;20275;-73
2023/11/08 00:37:24;;;;;;;2.60;1.27;;;6.70;75.50;;;;;;5093366;28;20231;-73
2023/11/08 00:39:52;;;;;;;3.50;1.40;;;6.70;75.60;;;;;;5094559;28;20193;-73
2023/11/08 00:42:19;;;;;;;2.78;1.00;;;6.70;75.70;;;;;;5094809;28;20193;-73
2023/11/08 00:44:46;;;;;;;7.05;1.70;;;6.70;75.20;;;;;;5094688;28;20239;-73
2023/11/08 00:47:15;;;;;;;3.05;1.20;;;6.70;75.60;;;;;;5094430;28;20189;-73
2023/11/08 00:49:43;;;;;;;3.65;1.00;;;6.70;75.50;;;;;;5094788;28;20523;-73
2023/11/08 00:52:11;;;;;;;3.35;1.55;;;6.60;75.10;;;;;;5094814;28;20239;-73
2023/11/08 00:54:39;;;;;;;2.70;1.20;;;6.60;75.00;;;;;;5094577;28;20296;-73
2023/11/08 00:57:08;;;;;;;3.28;1.48;;;6.60;75.10;;;;;;5094628;28;20542;-73
2023/11/08 00:59:36;;;;;;;3.55;2.15;;;6.50;74.50;;;;;;5093994;28;20208;-73
2023/11/08 01:02:04;;;;;;;3.33;1.08;;;6.60;74.70;;;;;;5094261;28;20194;-73
2023/11/08 01:04:32;;;;;;;2.92;1.23;;;6.50;74.70;;;;;;5094160;28;20229;-73
2023/11/08 01:07:00;;;;;;;3.85;1.40;;;6.60;74.60;;;;;;5094233;28;20189;-73
2023/11/08 01:09:27;;;;;;;3.90;1.17;;;6.50;74.20;;;;;;5094019;28;20200;-73
2023/11/08 01:11:54;;;;;;;2.30;0.90;;;6.50;74.00;;;;;;5094338;28;20251;-73
2023/11/08 01:14:22;;;;;;;3.47;1.63;;;6.50;74.20;;;;;;5093831;28;20266;-73
2023/11/08 01:16:49;;;;;;;3.25;1.10;;;6.50;73.90;;;;;;5093837;28;20240;-73
2023/11/08 01:19:16;;;;;;;3.50;1.00;;;6.50;73.80;;;;;;5094170;28;20197;-73
2023/11/08 01:21:45;;;;;;;3.58;1.20;;;6.50;73.90;;;;;;5093497;28;20252;-73
2023/11/08 01:24:13;;;;;;;3.90;1.50;;;6.40;73.90;;;;;;5092658;28;20201;-73
2023/11/08 01:26:41;;;;;;;3.67;0.98;;;6.40;73.90;;;;;;5093674;28;20647;-73
2023/11/08 01:29:08;;;;;;;2.40;1.08;;;6.50;73.90;;;;;;5093426;28;20197;-73
2023/11/08 01:31:35;;;;;;;2.42;0.95;;;6.50;73.80;;;;;;5093892;28;20186;-73
2023/11/08 01:34:02;;;;;;;4.95;0.95;;;6.50;73.50;;;;;;5093896;28;20189;-73
2023/11/08 01:36:30;;;;;;;3.35;0.90;;;6.50;73.70;;;;;;5093886;28;20571;-73
2023/11/08 01:38:58;;;;;;;2.33;1.08;;;6.50;73.70;;;;;;5093920;28;20192;-73
2023/11/08 01:41:27;;;;;;;4.72;1.20;;;6.50;73.80;;;;;;5094251;28;20197;-73
2023/11/08 01:43:59;;;;;;;2.63;0.93;;;6.50;73.80;;;;;;5093839;28;20284;-73
2023/11/08 01:46:27;;;;;;;2.50;1.08;;;6.50;73.80;;;;;;5093829;28;20264;-73
2023/11/08 01:48:55;;;;;;;5.82;1.20;;;6.60;72.90;;;;;;5093475;28;20239;-73
2023/11/08 01:51:22;;;;;;;4.10;0.80;;;6.60;71.90;;;;;;5093745;28;20276;-73
2023/11/08 01:53:51;;;;;;;2.13;1.08;;;6.60;71.80;;;;;;5094024;28;20185;-73
2023/11/08 01:56:20;;;;;;;2.42;0.80;;;6.50;71.80;;;;;;5092423;28;20224;-73
2023/11/08 01:58:48;;;;;;;6.47;1.42;;;6.50;71.80;;;;;;5073452;28;20607;-73
2023/11/08 02:01:18;;;;;;;2.25;0.95;;;6.50;71.40;;;;;;5073392;28;20248;-73
2023/11/08 02:03:47;;;;;;;2.25;0.80;;;6.50;71.20;;;;;;5073417;28;20263;-73
2023/11/08 02:06:15;;;;;;;2.67;1.02;;;6.50;71.50;;;;;;5073353;28;20263;-75
2023/11/08 02:08:43;;;;;;;2.03;1.00;;;6.50;71.80;;;;;;5093076;28;20658;-73
2023/11/08 02:11:12;;;;;;;3.55;0.90;;;6.40;71.80;;;;;;5093480;28;20189;-73
2023/11/08 02:13:42;;;;;;;2.92;0.90;;;6.40;71.30;;;;;;5093641;28;20189;-73
2023/11/08 02:16:10;;;;;;;2.10;0.85;;;6.40;70.80;;;;;;5093270;28;20220;-73
2023/11/08 02:18:52;;;;;;;8.63;1.25;;;6.30;70.50;;;;;;5093068;28;20185;-73
2023/11/08 02:21:19;;;;;;;2.78;1.10;;;6.30;70.90;;;;;;5093257;28;20228;-74
2023/11/08 02:23:46;;;;;;;1.92;0.82;;;6.20;70.90;;;;;;5093406;28;20197;-73
2023/11/08 02:26:14;;;;;;;2.20;1.00;;;6.10;71.50;;;;;;5092953;28;20272;-73
2023/11/08 02:28:42;;;;;;;2.97;0.80;;;6.00;71.80;;;;;;5093108;28;20189;-73
2023/11/08 02:31:09;;;;;;;3.30;1.00;;;6.00;71.70;;;;;;5092154;28;20193;-73
2023/11/08 02:33:36;;;;;;;2.20;1.20;;;6.00;71.50;;;;;;5092467;28;20185;-73
2023/11/08 02:36:04;;;;;;;4.43;0.95;;;6.00;71.40;;;;;;5093191;28;20217;-73
2023/11/08 02:38:31;;;;;;;3.47;1.40;;;6.00;71.30;;;;;;5091699;28;20189;-73
2023/11/08 02:40:58;;;;;;;2.38;1.00;;;5.90;71.30;;;;;;5091649;28;20193;-72
2023/11/08 02:43:26;;;;;;;4.38;1.00;;;5.90;71.50;;;;;;5093224;28;20238;-73
2023/11/08 02:45:54;;;;;;;2.15;0.95;;;5.80;71.70;;;;;;5093339;28;20247;-73
2023/11/08 02:48:21;;;;;;;3.65;1.05;;;5.70;72.10;;;;;;5092426;28;20233;-73
2023/11/08 02:50:50;;;;;;;2.20;0.90;;;5.70;72.50;;;;;;5093064;28;20617;-73
2023/11/08 02:53:20;;;;;;;8.35;0.85;;;5.60;72.60;;;;;;5092439;28;20705;-74
2023/11/08 02:55:49;;;;;;;2.45;0.82;;;5.60;72.60;;;;;;5093037;28;20213;-74
2023/11/08 02:58:16;;;;;;;2.00;0.80;;;5.60;72.60;;;;;;5092492;28;20254;-73
2023/11/08 03:00:45;;;;;;;3.75;1.00;;;5.50;72.60;;;;;;5095852;28;20270;-73
2023/11/08 03:03:13;;;;;;;2.70;0.95;;;5.50;72.80;;;;;;5096627;28;20196;-73
2023/11/08 03:05:40;;;;;;;3.03;0.77;;;5.40;73.00;;;;;;5096866;28;20198;-73
2023/11/08 03:08:10;;;;;;;4.25;1.10;;;5.40;73.70;;;;;;5096485;28;20301;-73
2023/11/08 03:10:38;;;;;;;3.40;1.20;;;5.30;74.20;;;;;;5096416;28;20205;-73
2023/11/08 03:13:05;;;;;;;3.45;1.15;;;5.30;74.70;;;;;;5096670;28;20595;-73
2023/11/08 03:15:36;;;;;;;2.22;0.90;;;5.30;75.00;;;;;;5096540;28;20210;-73
2023/11/08 03:18:04;;;;;;;2.08;0.85;;;5.30;75.40;;;;;;5095730;28;20182;-73
2023/11/08 03:20:38;;;;;;;2.85;1.10;;;5.30;75.60;;;;;;5095311;28;20324;-73
2023/11/08 03:23:05;;;;;;;2.70;0.90;;;5.30;75.30;;;;;;5095096;28;20691;-73
2023/11/08 03:25:34;;;;;;;3.00;1.10;;;5.30;75.50;;;;;;5095134;28;20193;-73
2023/11/08 03:28:01;;;;;;;2.10;0.90;;;5.20;74.70;;;;;;5095329;28;20244;-73
2023/11/08 03:30:30;;;;;;;1.85;0.63;;;5.20;74.90;;;;;;5094743;28;20190;-73
2023/11/08 03:32:58;;;;;;;2.58;1.05;;;5.20;74.70;;;;;;5094855;28;20185;-73
2023/11/08 03:35:26;;;;;;;2.47;1.00;;;5.20;74.70;;;;;;5095215;28;20249;-73
2023/11/08 03:38:07;;;;;;;8.18;1.55;;;5.20;74.70;;;;;;5095074;28;20225;-74
2023/11/08 03:40:34;;;;;;;2.28;0.90;;;5.20;74.00;;;;;;5095164;28;20178;-73
2023/11/08 03:43:02;;;;;;;2.63;1.00;;;5.10;73.20;;;;;;5095240;28;20243;-73
2023/11/08 03:45:29;;;;;;;2.55;0.85;;;5.10;73.70;;;;;;5095072;28;20242;-73
2023/11/08 03:47:56;;;;;;;2.78;1.10;;;5.00;73.50;;;;;;5095681;28;20189;-73
2023/11/08 03:50:23;;;;;;;2.05;0.80;;;4.90;73.70;;;;;;5094409;28;20242;-73
2023/11/08 03:52:52;;;;;;;3.20;1.10;;;4.90;74.20;;;;;;5094955;28;20194;-73
2023/11/08 03:55:19;;;;;;;2.50;0.90;;;4.80;74.70;;;;;;5094520;28;20245;-73
2023/11/08 03:57:46;;;;;;;2.50;1.00;;;4.80;74.70;;;;;;5094882;28;20243;-73
2023/11/08 04:00:15;;;;;;;2.78;1.70;;;4.80;74.60;;;;;;5094342;28;20186;-73
2023/11/08 04:02:42;;;;;;;3.83;1.63;;;4.80;75.60;;;;;;5094569;28;20296;-73
2023/11/08 04:05:09;;;;;;;4.40;2.10;;;4.80;74.90;;;;;;5094113;28;20197;-73
2023/11/08 04:07:36;;;;;;;3.05;1.33;;;4.80;74.50;;;;;;5094625;28;20270;-73
2023/11/08 04:10:08;;;;;;;5.03;1.83;;;4.70;74.60;;;;;;5094202;28;20190;-73
2023/11/08 04:12:35;;;;;;;3.13;1.30;;;4.70;74.90;;;;;;5094181;28;20174;-73
2023/11/08 04:15:08;;;;;;;3.45;1.20;;;4.70;74.90;;;;;;5093950;28;20234;-73
2023/11/08 04:17:35;;;;;;;2.92;1.30;;;4.70;74.70;;;;;;5094404;28;20178;-73
2023/11/08 04:20:03;;;;;;;3.63;1.33;;;4.70;75.20;;;;;;5093649;28;20271;-72
2023/11/08 04:22:30;;;;;;;2.38;1.45;;;4.70;74.80;;;;;;5094607;28;20189;-73
2023/11/08 04:25:00;;;;;;;4.22;2.10;;;4.60;74.90;;;;;;5094365;28;20570;-73
2023/11/08 04:27:34;;;;;;;4.70;2.20;;;4.60;75.30;;;;;;5094324;28;20307;-73
2023/11/08 04:30:02;;;;;;;4.57;1.92;;;4.60;75.40;;;;;;5093454;28;20185;-73
2023/11/08 04:32:29;;;;;;;3.83;1.15;;;4.70;75.30;;;;;;5094034;28;20193;-73
2023/11/08 04:34:57;;;;;;;2.65;1.40;;;4.70;75.30;;;;;;5093750;28;20189;-72
2023/11/08 04:37:27;;;;;;;3.33;1.77;;;4.70;75.00;;;;;;5093527;28;20592;-73
2023/11/08 04:39:56;;;;;;;5.88;1.38;;;4.70;75.10;;;;;;5093824;28;20194;-73
2023/11/08 04:42:25;;;;;;;2.88;1.20;;;4.80;74.50;;;;;;5094042;28;20193;-73
2023/11/08 04:44:56;;;;;;;3.65;2.40;;;4.80;73.60;;;;;;5093626;28;20652;-73
2023/11/08 04:47:25;;;;;;;2.75;1.20;;;4.80;73.70;;;;;;5093261;28;20174;-73
2023/11/08 04:49:53;;;;;;;3.13;0.90;;;4.70;73.40;;;;;;5094154;28;20186;-73
2023/11/08 04:52:21;;;;;;;2.50;1.15;;;4.70;74.50;;;;;;5094024;28;20198;-73
2023/11/08 04:54:49;;;;;;;2.33;1.00;;;4.70;73.80;;;;;;5093856;28;20182;-73
2023/11/08 04:57:17;;;;;;;2.83;1.05;;;4.70;73.90;;;;;;5093404;28;20216;-73
2023/11/08 04:59:45;;;;;;;6.53;0.95;;;4.70;73.70;;;;;;5093238;28;20197;-73
2023/11/08 05:02:15;;;;;;;2.63;1.67;;;4.80;73.50;;;;;;5093732;28;20193;-73
2023/11/08 05:04:45;;;;;;;2.50;1.10;;;4.70;73.00;;;;;;5092870;28;20186;-73
2023/11/08 05:07:13;;;;;;;2.60;1.38;;;4.70;73.40;;;;;;5093090;28;20220;-73
2023/11/08 05:09:41;;;;;;;4.63;3.63;;;4.70;73.50;;;;;;5093026;28;20220;-73
2023/11/08 05:12:09;;;;;;;3.25;2.03;;;4.70;74.10;;;;;;5093219;28;20192;-72
2023/11/08 05:14:36;;;;;;;2.90;1.20;;;4.70;74.50;;;;;;5093117;28;20189;-73
2023/11/08 05:17:04;;;;;;;2.67;1.33;;;4.70;74.90;;;;;;5092646;28;20236;-73
2023/11/08 05:19:33;;;;;;;2.35;0.90;;;4.60;75.70;;;;;;5092721;28;20235;-73
2023/11/08 05:22:00;;;;;;;2.10;0.88;;;4.60;75.00;;;;;;5093220;28;20264;-73
2023/11/08 05:24:27;;;;;;;2.15;0.90;;;4.60;75.20;;;;;;5091258;28;20209;-73
2023/11/08 05:26:56;;;;;;;2.40;0.90;;;4.50;75.30;;;;;;5093107;28;20193;-73
2023/11/08 05:29:25;;;;;;;3.95;1.10;;;4.50;75.20;;;;;;5092898;28;20189;-73
2023/11/08 05:31:52;;;;;;;2.90;1.00;;;4.50;75.00;;;;;;5093124;28;20211;-73
2023/11/08 05:34:19;;;;;;;2.10;1.10;;;4.50;75.00;;;;;;5092715;28;20675;-72
2023/11/08 05:36:47;;;;;;;3.47;1.33;;;4.50;75.00;;;;;;5092920;28;20221;-73
2023/11/08 05:39:21;;;;;;;2.08;0.98;;;4.50;74.10;;;;;;5093140;28;20315;-73
2023/11/08 05:41:49;;;;;;;2.65;1.88;;;4.50;73.90;;;;;;5092321;28;20269;-73
2023/11/08 05:44:16;;;;;;;3.25;1.65;;;4.50;73.70;;;;;;5092664;28;20177;-73
2023/11/08 05:46:43;;;;;;;4.28;2.03;;;4.60;73.40;;;;;;5092823;28;20197;-73
2023/11/08 05:49:10;;;;;;;4.10;1.95;;;4.50;73.00;;;;;;5092693;28;20197;-73
2023/11/08 05:51:38;;;;;;;4.05;2.90;;;4.50;73.90;;;;;;5093415;28;20193;-73
2023/11/08 05:54:07;;;;;;;5.90;3.53;;;4.40;74.30;;;;;;5092502;28;20173;-73
2023/11/08 05:56:34;;;;;;;6.43;2.85;;;4.30;74.50;;;;;;5089140;28;20253;-73
2023/11/08 05:59:01;;;;;;;5.80;2.65;;;4.30;74.50;;;;;;5086650;28;20204;-73
2023/11/08 06:01:28;;;;;;;4.18;2.28;;;4.30;74.90;;;;;;5091693;28;20276;-73
2023/11/08 06:03:59;;;;;;;3.90;2.40;;;4.30;75.40;;;;;;5092008;28;20213;-73
2023/11/08 06:06:27;;;;;;;3.88;2.33;;;4.30;76.10;;;;;;5092337;28;20197;-73
2023/11/08 06:08:54;;;;;;;8.20;2.53;;;4.30;76.40;;;;;;5091078;28;20185;-73
2023/11/08 06:11:23;;;;;;;3.78;2.28;;;4.40;75.80;;;;;;5091542;28;20202;-73
2023/11/08 06:13:50;;;;;;;5.13;2.70;;;4.40;76.10;;;;;;5091267;28;20213;-73
2023/11/08 06:16:20;;;;;;;3.40;2.50;;;4.40;76.50;;;;;;5091652;28;20251;-74
2023/11/08 06:18:47;;;;;;;5.22;2.75;;;4.50;76.90;;;;;;5092224;28;20193;-73
2023/11/08 06:21:18;;;;;;;6.50;2.50;;;4.50;77.10;;;;;;5091623;28;20229;-73
2023/11/08 06:26:40;;;;;;;4.68;2.05;;;4.70;77.50;;;;;;5081321;28;20941;-73
2023/11/08 06:29:08;;;;;;;5.57;2.30;;;4.80;77.20;;;;;;5090120;28;20177;-73
2023/11/08 06:31:49;;;;;;;4.20;2.15;;;4.80;76.60;;;;;;5089765;28;20189;-73
2023/11/08 06:34:16;;;;;;;3.60;2.22;;;4.80;76.70;;;;;;5092929;28;20218;-73
2023/11/08 06:36:46;;;;;;;3.13;1.80;;;4.80;76.70;;;;;;5096141;28;20220;-73
2023/11/08 06:39:14;;;;;;;4.53;1.85;;;5.00;77.10;;;;;;5095378;28;20242;-73
2023/11/08 06:41:42;;;;;;;4.25;1.58;;;5.20;76.90;;;;;;5094477;28;20204;-73
2023/11/08 06:44:11;;;;;;;3.47;1.40;;;5.30;76.10;;;;;;5095254;28;20177;-73
2023/11/08 06:46:39;;;;;;;2.90;1.40;;;5.30;76.10;;;;;;5095212;28;21188;-73
2023/11/08 06:49:07;;;;;;;2.80;1.45;;;5.40;75.60;;;;;;5096000;28;20193;-73
2023/11/08 06:51:35;;;;;;;4.35;1.70;;;5.40;74.80;;;;;;5095672;28;20193;-74
2023/11/08 06:54:02;;;;;;;3.00;2.00;;;5.60;75.50;;;;;;5095509;28;20193;-73
2023/11/08 06:56:32;;;;;;;4.32;1.75;;;6.10;74.00;;;;;;5094233;28;20209;-74
2023/11/08 06:59:00;;;;;;;2.97;1.35;;;6.50;72.20;;;;;;5095455;28;20217;-73
2023/11/08 07:01:27;;;;;;;3.40;1.60;;;6.80;71.00;;;;;;5095735;28;20243;-74
2023/11/08 07:03:54;;;;;;;6.50;2.30;;;6.90;69.20;;;;;;5094591;28;20189;-75
2023/11/08 07:06:21;;;;;;;6.63;2.00;;;6.90;69.10;;;;;;5095031;28;20599;-74
2023/11/08 07:08:53;;;;;;;3.65;1.75;;;6.90;68.80;;;;;;5095247;28;20194;-74
2023/11/08 07:11:21;;;;;;;2.92;1.67;;;6.90;68.50;;;;;;5095504;28;20565;-74
2023/11/08 07:13:48;;;;;;;3.38;1.63;;;7.00;68.30;;;;;;5095420;28;20215;-73
2023/11/08 07:16:18;;;;;;;3.60;1.83;;;6.90;67.90;;;;;;5093972;28;20221;-73
2023/11/08 07:18:46;;;;;;;2.75;1.17;;;6.80;66.50;;;;;;5094813;28;20239;-73
2023/11/08 07:21:18;;;;;;;3.65;1.35;;;6.80;66.70;;;;;;5095140;28;20639;-73
2023/11/08 07:23:45;;;;;;;4.45;2.00;;;6.70;66.60;;;;;;5094980;28;20213;-73
2023/11/08 07:26:13;;;;;;;3.00;1.55;;;6.70;66.90;;;;;;5093356;28;20473;-74
2023/11/08 07:28:41;;;;;;;2.78;1.20;;;6.70;66.20;;;;;;5094082;28;20203;-73
2023/11/08 07:31:09;;;;;;;2.40;1.20;;;6.90;66.00;;;;;;5094142;28;20255;-73
2023/11/08 07:33:38;;;;;;;2.67;1.20;;;6.90;65.80;;;;;;5094490;28;20334;-74
2023/11/08 07:36:06;;;;;;;2.20;1.02;;;7.30;66.20;;;;;;5094872;28;20189;-73
2023/11/08 07:38:36;;;;;;;2.20;1.10;;;8.10;66.60;;;;;;5094952;28;20217;-73
2023/11/08 07:41:03;;;;;;;4.38;1.77;;;8.80;64.90;;;;;;5093860;28;20209;-75
2023/11/08 07:43:30;;;;;;;2.65;1.45;;;9.50;63.10;;;;;;5092313;28;20185;-74
2023/11/08 07:45:58;;;;;;;3.53;1.33;;;10.10;58.80;;;;;;5092133;28;20178;-74
2023/11/08 07:48:26;;;;;;;3.00;1.45;;;10.70;57.80;;;;;;5094377;28;20250;-74
2023/11/08 07:50:54;;;;;;;2.53;1.33;;;11.30;56.20;;;;;;5094491;28;20317;-74
2023/11/08 07:53:21;;;;;;;2.58;1.33;;;11.90;54.00;;;;;;5094699;28;20601;-74
2023/11/08 07:55:49;;;;;;;4.20;1.50;;;12.00;52.30;;;;;;5095190;28;20186;-74
2023/11/08 07:58:17;;;;;;;4.18;1.02;;;12.40;52.90;;;;;;5095071;28;20623;-74
2023/11/08 08:00:45;;;;;;;2.90;1.00;;;12.80;49.40;;;;;;5094700;28;20258;-74
2023/11/08 08:03:14;;;;;;;2.20;1.00;;;13.00;48.50;;;;;;5094418;28;20516;-74
2023/11/08 08:05:41;;;;;;;3.80;1.17;;;13.00;47.40;;;;;;5094522;28;20780;-74
2023/11/08 08:08:10;;;;;;;4.50;1.83;;;13.00;46.20;;;;;;5094517;28;20467;-75
2023/11/08 08:10:37;;;;;;;4.63;1.23;;;13.00;46.60;;;;;;5094195;28;20478;-74
2023/11/08 08:13:04;;;;;;;2.43;0.90;;;13.00;47.00;;;;;;5094103;28;20416;-74
2023/11/08 08:15:31;;;;;;;2.53;1.20;;;12.90;46.70;;;;;;5094360;28;20497;-74
2023/11/08 08:17:59;;;;;;;2.43;0.77;;;12.80;46.30;;;;;;5094185;28;20555;-74
2023/11/08 08:20:27;;;;;;;2.97;1.47;;;12.60;46.30;;;;;;5093969;28;20460;-74
2023/11/08 08:22:55;;;;;;;6.17;1.30;;;12.30;46.70;;;;;;5093873;28;20463;-74
2023/11/08 08:25:24;;;;;;;3.10;1.57;;;12.30;47.20;;;;;;5093775;28;20436;-74
2023/11/08 08:27:51;;;;;;;3.23;1.60;;;12.40;47.40;;;;;;5094466;28;20463;-74
2023/11/08 08:30:18;;;;;;;3.53;1.87;;;12.50;47.90;;;;;;5094166;28;20514;-75
2023/11/08 08:32:47;;;;;;;3.70;2.10;;;12.40;47.60;;;;;;5092454;28;20435;-74
2023/11/08 08:35:17;;;;;;;3.07;1.30;;;12.30;47.00;;;;;;5094284;28;20272;-74
2023/11/08 08:37:44;;;;;;;2.90;1.00;;;12.10;47.00;;;;;;5094104;28;20493;-74
2023/11/08 08:40:11;;;;;;;2.10;0.90;;;11.90;47.50;;;;;;5093521;28;20444;-74
2023/11/08 08:42:41;;;;;;;2.53;1.10;;;11.80;48.50;;;;;;5093713;28;20185;-74
2023/11/08 08:45:09;;;;;;;2.53;1.30;;;11.70;48.90;;;;;;5093375;28;20431;-74
2023/11/08 08:47:36;;;;;;;2.78;1.40;;;11.60;48.90;;;;;;5093474;28;20197;-74
2023/11/08 08:50:04;;;;;;;2.30;1.00;;;11.70;49.20;;;;;;5093726;28;20186;-74
2023/11/08 08:52:31;;;;;;;4.20;1.70;;;11.80;49.90;;;;;;5093463;28;20524;-74
2023/11/08 08:54:58;;;;;;;4.27;1.73;;;11.90;50.10;;;;;;5093722;28;20489;-74
2023/11/08 08:57:25;;;;;;;2.30;1.10;;;12.10;50.30;;;;;;5092802;28;20467;-74
2023/11/08 08:59:53;;;;;;;2.43;1.03;;;12.50;49.60;;;;;;5093653;28;20535;-74
2023/11/08 09:02:23;;;;;;;2.57;1.30;;;13.40;49.90;;;;;;5093241;28;20471;-74
2023/11/08 09:04:51;;;;;;;2.70;0.87;;;14.80;47.10;;;;;;5093533;28;20431;-74
2023/11/08 09:07:18;;;;;;;5.30;1.00;;;15.30;43.20;;;;;;5093253;28;20439;-74
2023/11/08 09:09:45;;;;;;;2.57;1.00;;;15.10;40.90;;;;;;5092169;28;20921;-74
2023/11/08 09:12:12;;;;;;;2.53;0.93;;;15.20;42.60;;;;;;5093123;28;20436;-74
2023/11/08 09:14:39;;;;;;;2.67;1.17;;;15.70;41.10;;;;;;5092609;28;20427;-74
2023/11/08 09:17:10;;;;;;;3.30;1.10;;;15.80;39.40;;;;;;5092764;28;20561;-74
2023/11/08 09:19:41;;;;;;;4.20;1.20;;;15.80;40.00;;;;;;5093282;28;20443;-74
2023/11/08 09:22:08;;;;;;;5.80;1.20;;;16.00;40.70;;;;;;5092635;28;20443;-74
2023/11/08 09:24:35;;;;;;;2.47;0.93;;;16.40;39.50;;;;;;5092860;28;20468;-74
2023/11/08 09:27:02;;;;;;;2.13;0.80;;;16.70;38.80;;;;;;5093168;28;20446;-75
2023/11/08 09:29:29;;;;;;;3.17;1.00;;;17.60;39.90;;;;;;5091501;28;20466;-75
2023/11/08 09:31:56;;;;;;;3.40;1.07;;;18.80;37.20;;;;;;5093669;28;20439;-76
2023/11/08 09:34:24;;;;;;;2.03;0.80;;;20.00;35.90;;;;;;5093116;28;20436;-75
2023/11/08 09:36:51;;;;;;;3.17;0.80;;;21.00;34.40;;;;;;5092890;28;20839;-76
2023/11/08 09:39:18;;;;;;;3.20;0.90;;;21.90;32.70;;;;;;5092587;28;20435;-75
2023/11/08 09:41:45;;;;;;;2.23;0.80;;;22.70;30.50;;;;;;5092871;28;20431;-76
2023/11/08 09:44:15;;;;;;;3.97;0.83;;;23.10;30.10;;;;;;5092904;28;20526;-76
2023/11/08 09:46:42;;;;;;;2.43;1.00;;;24.00;29.20;;;;;;5092939;28;20436;-75
2023/11/08 09:49:10;;;;;;;5.87;0.70;;;24.90;27.90;;;;;;5092465;28;20469;-76
2023/11/08 09:51:38;;;;;;;2.57;0.83;;;26.00;26.10;;;;;;5092747;28;20435;-76
2023/11/08 09:54:06;;;;;;;1.93;0.63;;;26.90;24.60;;;;;;5092745;28;20474;-77
2023/11/08 09:56:35;;;;;;;2.20;0.80;;;27.50;24.30;;;;;;5092215;28;20443;-76
2023/11/08 09:59:03;;;;;;;2.40;0.90;;;28.20;22.70;;;;;;5092531;28;20439;-76
2023/11/08 10:01:34;;;;;;;2.17;0.70;;;28.90;21.00;;;;;;5093063;28;20432;-76
2023/11/08 10:04:03;;;;;;;2.73;0.70;;;29.60;21.20;;;;;;5092899;28;20441;-76
2023/11/08 10:06:32;;;;;;;3.27;1.10;;;30.40;19.90;;;;;;5092539;28;20433;-76
2023/11/08 10:09:01;;;;;;;2.60;0.90;;;30.90;18.00;;;;;;5092230;28;20446;-76
2023/11/08 10:11:30;;;;;;;2.17;0.90;;;31.30;18.20;;;;;;5092539;28;20521;-76
2023/11/08 10:13:58;;;;;;;2.73;0.80;;;31.70;17.10;;;;;;5092772;28;20530;-76
2023/11/08 10:16:26;;;;;;;2.40;1.07;;;32.20;16.90;;;;;;5092318;28;20474;-76
2023/11/08 10:19:00;;;;;;;2.20;0.70;;;32.60;16.30;;;;;;5092263;28;20463;-76
2023/11/08 10:21:30;;;;;;;2.43;0.90;;;32.60;16.00;;;;;;5092394;28;20517;-76
2023/11/08 10:24:11;;;;;;;2.03;0.73;;;32.50;15.90;;;;;;5092233;28;20481;-76
2023/11/08 10:26:38;;;;;;;2.73;1.00;;;31.20;15.80;;;;;;5092232;28;20537;-75
2023/11/08 10:29:07;;;;;;;2.17;0.70;;;30.00;16.00;;;;;;5092110;28;20429;-76
2023/11/08 10:31:35;;;;;;;2.90;1.10;;;28.90;17.70;;;;;;5093153;28;20474;-75
2023/11/08 10:34:03;;;;;;;3.17;0.90;;;28.50;18.70;;;;;;5092301;28;20510;-76
2023/11/08 10:36:34;;;;;;;3.43;0.70;;;29.40;17.30;;;;;;5092686;28;20902;-76
2023/11/08 10:39:04;;;;;;;2.30;1.10;;;30.20;16.90;;;;;;5092168;28;20497;-76
2023/11/08 10:41:32;;;;;;;2.20;0.83;;;32.40;17.90;;;;;;5092211;28;20513;-77
2023/11/08 10:44:07;;;;;;;3.20;0.87;;;34.80;15.80;;;;;;5092199;28;20439;-76
2023/11/08 10:46:34;;;;;;;2.20;0.80;;;35.80;12.80;;;;;;5092192;28;20506;-76
2023/11/08 10:49:04;;;;;;;4.80;0.80;;;33.80;12.70;;;;;;5092518;28;20446;-76
2023/11/08 10:51:32;;;;;;;2.10;0.70;;;32.10;14.10;;;;;;5092175;28;20847;-75
2023/11/08 10:53:59;;;;;;;2.10;0.90;;;31.30;14.30;;;;;;5091816;28;20427;-76
2023/11/08 10:56:28;;;;;;;3.07;1.10;;;31.10;14.60;;;;;;5091649;28;20489;-76
2023/11/08 10:59:02;;;;;;;2.50;0.70;;;32.50;14.00;;;;;;5092105;28;20474;-76
2023/11/08 11:01:31;;;;;;;2.10;0.60;;;32.50;13.10;;;;;;5092018;28;20713;-77
2023/11/08 11:04:05;;;;;;;1.90;0.60;;;33.90;13.30;;;;;;5092471;28;20462;-77
2023/11/08 11:06:36;;;;;;;1.97;0.53;;;35.30;12.50;;;;;;5092102;28;20438;-77
2023/11/08 11:09:08;;;;;;;1.87;0.60;;;36.50;12.00;;;;;;5091827;28;20444;-77
2023/11/08 11:11:37;;;;;;;2.30;0.67;;;37.10;11.10;;;;;;5091616;28;20889;-77
2023/11/08 11:14:16;;;;;;;2.83;0.73;;;37.70;11.30;;;;;;5091824;28;20619;-77
2023/11/08 11:16:53;;;;;;;2.53;0.77;;;37.90;10.20;;;;;;5091496;28;20415;-77
2023/11/08 11:19:25;;;;;;;2.70;0.87;;;38.40;9.00;;;;;;5092032;28;20419;-77
2023/11/08 11:21:56;;;;;;;2.30;0.70;;;38.80;9.40;;;;;;5094808;28;20423;-77
2023/11/08 11:24:37;;;;;;;2.20;0.70;;;39.20;10.00;;;;;;5095361;28;20420;-77
2023/11/08 11:27:05;;;;;;;3.50;0.93;;;39.50;9.00;;;;;;5095247;28;20427;-77
2023/11/08 11:29:34;;;;;;;1.83;0.60;;;40.00;8.30;;;;;;5095565;28;20431;-77
2023/11/08 11:32:05;;;;;;;3.30;0.83;;;40.20;8.20;;;;;;5095202;28;20435;-77
2023/11/08 11:34:42;;;;;;;2.50;0.70;;;39.60;7.80;;;;;;5095614;28;20462;-77
2023/11/08 11:37:12;;;;;;;1.90;0.70;;;39.50;8.40;;;;;;5095504;28;20427;-78
2023/11/08 11:39:42;;;;;;;4.80;0.90;;;39.80;7.90;;;;;;5095652;28;20426;-78
2023/11/08 11:42:16;;;;;;;2.47;0.80;;;39.40;7.00;;;;;;5094945;28;20431;-77
2023/11/08 11:44:46;;;;;;;3.33;0.97;;;39.30;8.30;;;;;;5095240;28;20506;-78
2023/11/08 11:47:15;;;;;;;2.50;0.90;;;39.50;8.10;;;;;;5095301;28;20518;-77
2023/11/08 11:52:51;;;;;;;3.87;0.87;;;39.80;8.30;;;;;;5094396;28;20415;-77
2023/11/08 11:55:20;;;;;;;2.20;0.70;;;39.40;7.90;;;;;;5094649;28;20431;-77
2023/11/08 11:57:48;;;;;;;2.67;0.90;;;39.40;7.70;;;;;;5093076;28;20458;-77
2023/11/08 12:00:16;;;;;;;2.30;0.70;;;39.40;7.70;;;;;;5094935;28;20427;-77
2023/11/08 12:02:44;;;;;;;2.43;0.60;;;39.10;7.40;;;;;;5094647;28;20431;-77
2023/11/08 12:05:13;;;;;;;2.67;0.60;;;39.10;7.70;;;;;;5094873;28;20493;-77
2023/11/08 12:07:42;;;;;;;2.07;0.60;;;39.00;7.60;;;;;;5094632;28;20463;-77
2023/11/08 12:10:11;;;;;;;2.43;0.70;;;38.90;7.80;;;;;;5094870;28;20477;-77
2023/11/08 12:12:39;;;;;;;2.93;0.97;;;38.80;7.30;;;;;;5094213;28;20441;-77
2023/11/08 12:15:25;;;;;;;2.73;0.60;;;38.90;7.50;;;;;;5093184;28;20436;-76
2023/11/08 12:17:53;;;;;;;3.80;0.70;;;38.70;7.90;;;;;;5094207;28;20647;-77
2023/11/08 12:20:42;;;;;;;3.30;0.70;;;38.70;7.80;;;;;;5084255;28;20824;-77
2023/11/08 12:23:11;;;;;;;2.30;0.80;;;38.40;7.90;;;;;;5081268;28;20855;-76
2023/11/08 12:25:43;;;;;;;1.90;0.50;;;38.20;8.30;;;;;;5092687;28;20522;-76
2023/11/08 12:28:10;;;;;;;2.43;0.77;;;37.90;8.10;;;;;;5091037;28;20462;-77
2023/11/08 12:30:49;;;;;;;2.27;0.80;;;37.50;8.30;;;;;;5092122;28;20723;-78
2023/11/08 12:33:16;;;;;;;2.20;0.60;;;37.20;7.70;;;;;;5075199;28;20791;-76
2023/11/08 12:35:44;;;;;;;3.97;0.80;;;36.70;8.20;;;;;;5093864;28;20439;-76
2023/11/08 12:38:11;;;;;;;2.43;0.73;;;36.40;8.40;;;;;;5093268;28;20451;-76
2023/11/08 12:40:39;;;;;;;2.40;0.77;;;36.10;8.60;;;;;;5092795;28;20453;-76
2023/11/08 12:43:22;;;;;;;1.90;0.60;;;35.80;8.60;;;;;;5092708;28;20439;-76
2023/11/08 12:45:50;;;;;;;2.57;0.80;;;35.40;9.10;;;;;;5092806;28;20427;-76
2023/11/08 12:48:17;;;;;;;2.40;0.63;;;34.90;9.50;;;;;;5093627;28;20997;-76
2023/11/08 12:50:51;;;;;;;3.00;0.87;;;34.60;8.90;;;;;;5093612;28;20442;-76
2023/11/08 12:53:18;;;;;;;2.00;0.60;;;34.10;9.10;;;;;;5093597;28;20914;-75
2023/11/08 12:55:45;;;;;;;2.00;0.70;;;33.60;9.50;;;;;;5093332;28;20766;-75
2023/11/08 12:58:22;;;;;;;3.83;1.00;;;33.20;9.80;;;;;;5093315;28;20444;-75
2023/11/08 13:00:51;;;;;;;3.33;0.80;;;32.80;10.20;;;;;;5093185;28;20542;-76
2023/11/08 13:03:20;;;;;;;2.80;0.60;;;32.50;10.70;;;;;;5093489;28;20434;-76
2023/11/08 13:05:53;;;;;;;4.20;0.80;;;32.20;10.80;;;;;;5093586;28;20435;-76